»·PEaware :: AAL209 KSFO-KLAX

AAL209 :: KSFO-KLAX

FLIGHT INFORMATION

Flight Status: Arrived
Operator:
American Airlines
More flights by this operator :: More flights under this callsign
Pilot: Graham S. (10862)
Aircraft: BOEING 757-200
(B752)
More flights by this aircraft type
Origin: KSFO San Francisco Intl
United States
Destination: KLAX Los Angeles Intl
United States
More flights between these airports :: More routes between these airports
Route: SSTIK3 EBAYE AVE SADDE7
File this flight plan on PilotEdge
Remarks: PBN / A1B3B4B5C4D4O4 DOF / 170421 REG / N537SB EET / KZLA0025 OPR / AAL RMK / TCAS SIMBRIEF
Altitude:
(Current/Filed)
35,000ft
Speed:
(Current/Filed)
448kts
Departed: 21-Apr-17 08:58 AM
Arrived: 21-Apr-17 09:54 AM
Distance/Time
Traveled:
293nm/0:56
Distance/Time
To Go:
Arrived

Flight Plot

Page will automatically refresh every two minutes.


Map Options




Map Legend


Flown Route
Filed Route
Departure Airport
Arrival Airport
Navaid (VOR, NDB)
Fix

Horizontal Profiles

Position Reports

Time Latitude Longitude Heading Altitude Ground
Speed
21-Apr-17 08:38 37.618357 -122.382033 139 24ft 0kts
21-Apr-17 08:39 37.618357 -122.382033 139 24ft 0kts
21-Apr-17 08:40 37.618357 -122.382033 139 24ft 0kts
21-Apr-17 08:41 37.618357 -122.382033 139 24ft 0kts
21-Apr-17 08:42 37.618357 -122.382033 139 24ft 0kts
21-Apr-17 08:43 37.618357 -122.382034 139 24ft 0kts
21-Apr-17 08:44 37.618357 -122.382034 139 24ft 0kts
21-Apr-17 08:45 37.618357 -122.382034 139 24ft 0kts
21-Apr-17 08:46 37.618357 -122.382034 139 24ft 0kts
21-Apr-17 08:47 37.618357 -122.382034 139 24ft 0kts
21-Apr-17 08:48 37.618357 -122.382034 139 24ft 0kts
21-Apr-17 08:49 37.618357 -122.382034 139 24ft 0kts
21-Apr-17 08:50 37.618544 -122.382245 136 24ft 0kts
21-Apr-17 08:51 37.618508 -122.382785 55 24ft 0kts
21-Apr-17 08:52 37.618510 -122.382781 55 24ft 0kts
21-Apr-17 08:54 37.618510 -122.382781 55 24ft 0kts
21-Apr-17 08:55 37.618510 -122.382781 55 24ft 0kts
21-Apr-17 08:56 37.617512 -122.379429 178 24ft 25kts
21-Apr-17 08:57 37.611130 -122.383184 205 25ft 17kts
21-Apr-17 08:58 37.609170 -122.383606 129 24ft 0kts
21-Apr-17 08:59 37.609341 -122.381990 23 24ft 0kts
21-Apr-17 09:00 37.632453 -122.367725 13 882ft 133kts
21-Apr-17 09:01 37.675361 -122.363224 1 2783ft 196kts
21-Apr-17 09:02 37.694910 -122.423412 231 6247ft 253kts
21-Apr-17 09:03 37.628649 -122.436563 185 8434ft 261kts
21-Apr-17 09:04 37.556907 -122.453303 196 9967ft 268kts
21-Apr-17 09:05 37.478579 -122.459555 147 9977ft 304kts
21-Apr-17 09:06 37.420083 -122.384342 131 9973ft 302kts
21-Apr-17 09:07 37.363259 -122.307395 131 10003ft 318kts
21-Apr-17 09:08 37.296670 -122.217324 132 11801ft 370kts
21-Apr-17 09:09 37.224571 -122.120068 133 14416ft 394kts
21-Apr-17 09:10 37.148697 -122.018052 135 17014ft 412kts
21-Apr-17 09:11 37.070015 -121.912579 136 19614ft 422kts
21-Apr-17 09:12 36.988946 -121.804277 137 22222ft 437kts
21-Apr-17 09:13 36.905367 -121.692967 137 24818ft 448kts
21-Apr-17 09:14 36.821205 -121.581266 137 27384ft 450kts
21-Apr-17 09:15 36.738721 -121.465580 134 29972ft 445kts
21-Apr-17 09:16 36.653244 -121.350214 136 30774ft 479kts
21-Apr-17 09:17 36.563402 -121.231994 137 32325ft 489kts
21-Apr-17 09:18 36.471404 -121.111420 137 34458ft 483kts
21-Apr-17 09:19 36.382661 -120.988387 134 34980ft 482kts
21-Apr-17 09:20 36.295263 -120.862854 134 34964ft 483kts
21-Apr-17 09:21 36.208000 -120.738071 134 34965ft 483kts
21-Apr-17 09:22 36.121109 -120.614287 134 34940ft 483kts
21-Apr-17 09:23 36.033602 -120.490087 134 34967ft 483kts
21-Apr-17 09:24 35.946347 -120.366695 134 34957ft 483kts
21-Apr-17 09:25 35.867157 -120.255595 137 34962ft 482kts
21-Apr-17 09:26 35.774336 -120.137540 137 34962ft 482kts
21-Apr-17 09:27 35.681225 -120.019324 137 34964ft 482kts
21-Apr-17 09:28 35.578836 -119.918613 148 34964ft 476kts
21-Apr-17 09:29 35.470931 -119.824943 148 34965ft 477kts
21-Apr-17 09:30 35.362322 -119.731367 149 33448ft 480kts
21-Apr-17 09:31 35.253418 -119.637905 149 31997ft 483kts
21-Apr-17 09:32 35.143442 -119.543838 149 30425ft 487kts
21-Apr-17 09:33 35.034213 -119.450701 149 28783ft 475kts
21-Apr-17 09:34 34.927645 -119.360131 149 27216ft 464kts
21-Apr-17 09:35 34.830192 -119.277584 149 25707ft 454kts
21-Apr-17 09:36 34.724154 -119.188059 149 24138ft 465kts
21-Apr-17 09:37 34.618564 -119.099181 149 23990ft 464kts
21-Apr-17 09:38 34.515347 -119.012554 149 22387ft 445kts
21-Apr-17 09:39 34.416104 -118.929529 149 19405ft 429kts
21-Apr-17 09:40 34.317571 -118.869887 166 17706ft 376kts
21-Apr-17 09:41 34.219099 -118.832418 166 15045ft 372kts
21-Apr-17 09:42 34.122251 -118.796769 164 12749ft 361kts
21-Apr-17 09:43 34.049119 -118.732155 107 11423ft 313kts
21-Apr-17 09:44 34.064036 -118.640770 42 9391ft 285kts
21-Apr-17 09:45 34.068310 -118.560322 130 7492ft 293kts
21-Apr-17 09:46 34.022238 -118.484995 109 6781ft 286kts
21-Apr-17 09:47 34.022925 -118.401419 61 6624ft 278kts
21-Apr-17 09:48 34.037504 -118.316613 82 5027ft 295kts
21-Apr-17 09:49 34.047949 -118.224346 82 4741ft 257kts
21-Apr-17 09:50 34.023471 -118.166600 175 3727ft 222kts
21-Apr-17 09:51 33.965358 -118.179211 224 2765ft 226kts
21-Apr-17 09:52 33.950550 -118.241951 266 2505ft 215kts
21-Apr-17 09:53 33.945796 -118.300859 262 1514ft 161kts
21-Apr-17 09:54 33.940484 -118.352691 259 815ft 151kts
21-Apr-17 09:55 33.934710 -118.407127 259 137ft 139kts
21-Apr-17 09:56 33.935756 -118.419187 349 136ft 22kts
21-Apr-17 09:57 33.937793 -118.418319 82 136ft 5kts
21-Apr-17 09:58 33.938092 -118.414758 81 136ft 3kts
21-Apr-17 09:59 33.938905 -118.407567 81 136ft 17kts
21-Apr-17 10:00 33.940402 -118.405843 283 136ft 4kts
21-Apr-17 10:01 33.940455 -118.406148 278 136ft 0kts

Navigation Log

Ident Type
1. KSFO Airport
2. SSTIK Fix
3. PORTE Fix
4. SUSEY Fix
5. EBAYE Fix
6. AVE Navaid
7. DERBB Fix
8. REYES Fix
9. FIM Navaid
10. SYMON Fix
11. SADDE Fix
12. BAYST Fix
13. SMO Navaid
14. KLAX Airport